createdAt,value
2018-10-12T00:00:43.755Z,66.85
2018-10-12T00:03:17.989Z,67.06
2018-10-12T00:05:50.642Z,67.30
2018-10-12T00:08:23.100Z,67.24
2018-10-12T00:10:56.016Z,67.43
2018-10-12T00:13:29.931Z,67.57
2018-10-12T00:16:02.545Z,67.78
2018-10-12T00:18:35.365Z,67.51
2018-10-12T00:21:08.381Z,66.99
2018-10-12T00:23:40.774Z,66.75
2018-10-12T00:26:13.389Z,66.68
2018-10-12T00:28:47.058Z,66.69
2018-10-12T00:31:19.977Z,66.31
2018-10-12T00:33:53.221Z,65.95
2018-10-12T00:36:29.118Z,65.75
2018-10-12T00:39:01.862Z,65.67
2018-10-12T00:41:34.779Z,65.61
2018-10-12T00:44:08.123Z,65.51
2018-10-12T00:46:41.393Z,65.35
2018-10-12T00:49:13.987Z,65.11
2018-10-12T00:51:47.000Z,65.21
2018-10-12T00:54:19.508Z,65.18
2018-10-12T00:56:52.080Z,65.12
2018-10-12T00:59:26.361Z,65.17
2018-10-12T01:01:59.033Z,65.18
2018-10-12T01:04:31.986Z,65.37
2018-10-12T01:07:06.659Z,65.53
2018-10-12T01:09:40.492Z,65.74
2018-10-12T01:12:39.181Z,65.77
2018-10-12T01:15:13.510Z,65.59
2018-10-12T01:17:46.269Z,65.34
2018-10-12T01:20:19.720Z,65.26
2018-10-12T01:22:53.720Z,65.33
2018-10-12T01:25:26.753Z,65.52
2018-10-12T01:28:00.920Z,65.61
2018-10-12T01:30:33.501Z,65.32
2018-10-12T01:33:06.915Z,65.08
2018-10-12T01:35:40.677Z,65.08
2018-10-12T01:38:13.594Z,65.07
2018-10-12T01:40:46.334Z,65.16
2018-10-12T01:43:19.571Z,65.21
2018-10-12T01:45:53.307Z,65.12
2018-10-12T01:48:26.018Z,65.20
2018-10-12T01:51:02.566Z,65.27
2018-10-12T01:53:35.314Z,65.35
2018-10-12T01:56:08.641Z,65.23
2018-10-12T01:58:42.097Z,65.46
2018-10-12T02:01:14.764Z,65.53
2018-10-12T02:03:48.324Z,65.60
2018-10-12T02:06:21.090Z,65.61
2018-10-12T02:08:53.774Z,65.69
2018-10-12T02:11:27.584Z,65.85
2018-10-12T02:14:00.739Z,66.03
2018-10-12T02:16:36.553Z,66.17
2018-10-12T02:19:10.045Z,66.40
2018-10-12T02:21:42.889Z,66.67
2018-10-12T02:24:15.344Z,66.82
2018-10-12T02:26:47.890Z,66.85
2018-10-12T02:29:21.725Z,66.75
2018-10-12T02:31:57.478Z,66.89
2018-10-12T02:34:30.470Z,66.90
2018-10-12T02:37:03.742Z,67.06
2018-10-12T02:39:36.402Z,67.28
2018-10-12T02:42:09.069Z,67.41
2018-10-12T02:44:41.882Z,67.62
2018-10-12T02:47:14.446Z,68.01
2018-10-12T02:49:47.052Z,68.19
2018-10-12T02:52:20.017Z,68.19
2018-10-12T02:54:52.652Z,68.15
2018-10-12T02:57:25.433Z,68.24
2018-10-12T02:59:58.633Z,68.27
2018-10-12T03:02:31.400Z,68.29
2018-10-12T03:05:04.045Z,68.46
2018-10-12T03:07:37.279Z,68.41
2018-10-12T03:10:10.590Z,68.22
2018-10-12T03:12:44.652Z,68.17
2018-10-12T03:15:21.447Z,67.96
2018-10-12T03:17:54.430Z,67.99
2018-10-12T03:20:27.209Z,67.98
2018-10-12T03:23:00.190Z,67.97
2018-10-12T03:25:33.545Z,68.22
2018-10-12T03:28:29.585Z,68.46
2018-10-12T03:31:08.072Z,68.86
2018-10-12T03:33:43.045Z,69.09
2018-10-12T03:36:17.600Z,69.15
2018-10-12T03:38:50.703Z,69.32
2018-10-12T03:41:23.762Z,69.28
2018-10-12T03:43:56.661Z,69.43
2018-10-12T03:46:29.149Z,69.55
2018-10-12T03:49:01.982Z,69.67
2018-10-12T03:51:34.904Z,69.72
2018-10-12T03:54:08.080Z,69.89
2018-10-12T03:56:40.729Z,69.91
2018-10-12T03:59:14.979Z,70.18
2018-10-12T04:01:48.459Z,70.39
2018-10-12T04:04:22.736Z,70.76
2018-10-12T04:06:55.897Z,70.74
2018-10-12T04:09:29.492Z,70.70
2018-10-12T04:12:02.596Z,70.61
2018-10-12T04:14:37.534Z,70.84
2018-10-12T04:17:10.320Z,70.77
2018-10-12T04:19:43.048Z,70.89
2018-10-12T04:22:21.570Z,70.79
2018-10-12T04:24:54.428Z,70.90
2018-10-12T04:27:27.000Z,71.00
2018-10-12T04:30:04.616Z,71.26
2018-10-12T04:32:38.484Z,71.37
2018-10-12T04:35:11.131Z,71.53
2018-10-12T04:37:45.978Z,71.78
2018-10-12T04:41:16.008Z,71.86
2018-10-12T04:43:50.479Z,72.04
2018-10-12T04:46:33.812Z,72.22
2018-10-12T04:49:09.973Z,72.23
2018-10-12T04:51:55.985Z,72.19
2018-10-12T04:54:32.173Z,72.42
2018-10-12T04:57:05.965Z,72.75
2018-10-12T04:59:39.242Z,72.74
2018-10-12T05:02:12.566Z,72.71
2018-10-12T05:04:45.767Z,72.68
2018-10-12T05:07:18.860Z,72.64
2018-10-12T05:09:51.432Z,72.64
2018-10-12T05:12:25.008Z,72.84
2018-10-12T05:15:00.132Z,72.75
2018-10-12T05:17:36.362Z,72.90
2018-10-12T05:20:08.956Z,73.17
2018-10-12T05:22:42.078Z,73.39
2018-10-12T05:25:15.101Z,73.54
2018-10-12T05:27:48.253Z,73.57
2018-10-12T05:30:21.131Z,73.56
2018-10-12T05:32:54.068Z,73.67
2018-10-12T05:35:26.946Z,73.70
2018-10-12T05:37:59.647Z,73.63
2018-10-12T05:40:33.332Z,73.80
2018-10-12T05:43:08.366Z,73.73
2018-10-12T05:45:42.613Z,73.91
2018-10-12T05:48:39.812Z,74.06
2018-10-12T05:51:18.906Z,74.03
2018-10-12T05:53:53.666Z,73.89
2018-10-12T05:56:35.244Z,73.77
2018-10-12T05:59:12.301Z,73.75
2018-10-12T06:01:45.460Z,73.63
2018-10-12T06:04:19.629Z,73.54
2018-10-12T06:06:52.773Z,73.42
2018-10-12T06:09:27.265Z,73.28
2018-10-12T06:11:59.998Z,73.17
2018-10-12T06:14:33.131Z,73.04
2018-10-12T06:17:06.706Z,72.99
2018-10-12T06:19:41.156Z,72.90
2018-10-12T06:22:20.030Z,72.81
2018-10-12T06:24:52.520Z,72.64
2018-10-12T06:27:25.809Z,72.54
2018-10-12T06:29:59.115Z,72.53
2018-10-12T06:32:32.082Z,72.36
2018-10-12T06:35:05.158Z,72.03
2018-10-12T06:37:38.317Z,71.88
2018-10-12T06:40:10.955Z,71.76
2018-10-12T06:42:43.799Z,71.60
2018-10-12T06:45:16.377Z,71.44
2018-10-12T06:47:49.156Z,71.22
2018-10-12T06:50:21.719Z,71.05
2018-10-12T06:52:54.831Z,70.83
2018-10-12T06:55:27.683Z,70.63
2018-10-12T06:58:00.244Z,70.53
2018-10-12T07:00:33.389Z,70.42
2018-10-12T07:03:07.020Z,70.31
2018-10-12T07:05:40.253Z,70.18
2018-10-12T07:08:15.051Z,69.91
2018-10-12T07:10:52.687Z,69.64
2018-10-12T07:13:27.164Z,69.42
2018-10-12T07:16:00.186Z,69.04
2018-10-12T07:18:33.237Z,68.82
2018-10-12T07:21:06.659Z,68.63
2018-10-12T07:23:40.232Z,68.48
2018-10-12T07:26:15.193Z,68.16
2018-10-12T07:28:53.068Z,68.04
2018-10-12T07:31:27.366Z,67.81
2018-10-12T07:34:01.108Z,67.43
2018-10-12T07:36:33.788Z,67.24
2018-10-12T07:39:08.546Z,67.15
2018-10-12T07:41:44.802Z,66.81
2018-10-12T07:44:18.457Z,66.50
2018-10-12T07:46:51.392Z,66.06
2018-10-12T07:49:23.989Z,65.85
2018-10-12T07:51:59.205Z,64.72
2018-10-12T07:54:32.504Z,64.12
2018-10-12T07:57:12.098Z,63.69
2018-10-12T07:59:45.716Z,63.77
2018-10-12T08:02:19.162Z,63.79
2018-10-12T08:04:53.036Z,63.84
2018-10-12T08:07:26.915Z,63.96
2018-10-12T08:10:02.088Z,64.26
2018-10-12T08:12:37.799Z,64.46
2018-10-12T08:15:16.324Z,64.43
2018-10-12T08:17:49.525Z,64.28
2018-10-12T08:20:23.016Z,64.01
2018-10-12T08:22:58.844Z,63.70
2018-10-12T08:25:32.745Z,63.37
2018-10-12T08:28:07.684Z,63.05
2018-10-12T08:30:45.688Z,62.58
2018-10-12T08:33:25.399Z,62.52
2018-10-12T08:35:59.872Z,62.06
2018-10-12T08:38:35.971Z,61.36
2018-10-12T08:41:10.872Z,60.98
2018-10-12T08:43:44.368Z,60.43
2018-10-12T08:46:17.351Z,59.70
2018-10-12T08:48:52.036Z,58.31
2018-10-12T08:51:25.004Z,57.10
2018-10-12T08:53:57.680Z,55.27
2018-10-12T08:56:32.458Z,54.03
2018-10-12T08:59:05.473Z,54.63
2018-10-12T09:01:38.041Z,55.33
2018-10-12T09:04:12.424Z,55.90
2018-10-12T09:06:46.139Z,56.45
2018-10-12T09:09:18.873Z,56.87
2018-10-12T09:11:51.815Z,57.35
2018-10-12T09:14:25.674Z,57.45
2018-10-12T09:17:00.518Z,57.55
2018-10-12T09:19:34.093Z,56.82
2018-10-12T09:22:07.709Z,55.36
2018-10-12T09:24:40.241Z,55.55
2018-10-12T09:27:14.809Z,55.15
2018-10-12T09:29:47.558Z,54.86
2018-10-12T09:32:20.154Z,55.24
2018-10-12T09:34:54.570Z,55.55
2018-10-12T09:37:28.910Z,56.03
2018-10-12T09:40:02.462Z,56.68
2018-10-12T09:42:35.198Z,57.32
2018-10-12T09:45:09.993Z,57.60
2018-10-12T09:47:45.221Z,58.03
2018-10-12T09:50:18.544Z,58.08
2018-10-12T09:52:52.735Z,57.89
2018-10-12T09:55:30.061Z,58.32
2018-10-12T09:58:06.240Z,58.53
2018-10-12T10:00:46.012Z,58.03
2018-10-12T10:03:24.088Z,56.78
2018-10-12T10:06:00.365Z,54.56
2018-10-12T10:08:36.700Z,52.93
2018-10-12T10:11:10.063Z,52.04
2018-10-12T10:13:46.791Z,50.34
2018-10-12T10:16:21.705Z,49.90
2018-10-12T10:18:55.225Z,49.51
2018-10-12T10:21:30.425Z,48.91
2018-10-12T10:24:03.527Z,48.64
2018-10-12T10:26:38.445Z,48.28
2018-10-12T10:29:12.552Z,47.66
2018-10-12T10:31:46.966Z,47.43
2018-10-12T10:34:21.875Z,46.21
2018-10-12T10:36:54.573Z,45.65
2018-10-12T10:39:28.499Z,45.36
2018-10-12T10:42:01.260Z,44.87
2018-10-12T10:44:35.097Z,43.36
2018-10-12T10:47:09.528Z,43.27
2018-10-12T10:49:42.356Z,42.56
2018-10-12T10:52:15.106Z,42.65
2018-10-12T10:54:53.158Z,42.66
2018-10-12T10:57:25.909Z,42.41
2018-10-12T10:59:59.661Z,41.93
2018-10-12T11:02:35.784Z,42.13
2018-10-12T11:05:10.445Z,42.03
2018-10-12T11:07:50.385Z,41.92
2018-10-12T11:10:24.264Z,41.43
2018-10-12T11:12:59.734Z,40.89
2018-10-12T11:15:33.750Z,40.95
2018-10-12T11:18:08.473Z,41.08
2018-10-12T11:20:41.293Z,41.37
2018-10-12T11:23:16.986Z,41.35
2018-10-12T11:25:59.161Z,41.76
2018-10-12T11:28:31.937Z,41.79
2018-10-12T11:31:07.277Z,41.39
2018-10-12T11:33:41.559Z,42.01
2018-10-12T11:36:15.146Z,41.77
2018-10-12T11:38:47.966Z,41.90
2018-10-12T11:41:21.192Z,41.35
2018-10-12T11:43:53.903Z,41.02
2018-10-12T11:46:28.466Z,41.02
2018-10-12T11:49:02.305Z,40.52
2018-10-12T11:51:35.876Z,40.39
2018-10-12T11:54:12.117Z,40.50
2018-10-12T11:56:51.691Z,39.90
2018-10-12T11:59:28.715Z,39.47
2018-10-12T12:02:03.337Z,39.69
2018-10-12T12:04:36.672Z,39.24
2018-10-12T12:07:11.194Z,39.03
2018-10-12T12:09:45.585Z,39.57
2018-10-12T12:12:19.597Z,39.70
2018-10-12T12:14:54.566Z,39.72
2018-10-12T12:17:27.791Z,39.53
2018-10-12T12:20:02.871Z,39.86
2018-10-12T12:22:40.435Z,40.72
2018-10-12T12:25:17.284Z,40.86
2018-10-12T12:27:50.634Z,40.84
2018-10-12T12:30:23.244Z,40.56
2018-10-12T12:32:57.968Z,40.88
2018-10-12T12:35:31.195Z,40.66
2018-10-12T12:38:03.428Z,39.73
2018-10-12T12:40:36.941Z,40.22
2018-10-12T12:43:10.633Z,40.36
2018-10-12T12:45:43.946Z,40.62
2018-10-12T12:48:18.755Z,40.14
2018-10-12T12:50:51.912Z,39.58
2018-10-12T12:53:32.606Z,38.97
2018-10-12T12:56:05.156Z,38.55
2018-10-12T12:58:39.084Z,37.94
2018-10-12T13:01:11.781Z,37.96
2018-10-12T13:03:44.792Z,37.64
2018-10-12T13:06:18.149Z,36.97
2018-10-12T13:08:50.788Z,37.21
2018-10-12T13:11:24.195Z,37.47
2018-10-12T13:13:57.214Z,38.04
2018-10-12T13:16:31.217Z,37.99
2018-10-12T13:19:03.874Z,37.80
2018-10-12T13:21:40.619Z,37.52
2018-10-12T13:24:16.432Z,37.49
2018-10-12T13:26:52.648Z,37.19
2018-10-12T13:29:29.433Z,37.19
2018-10-12T13:32:03.524Z,37.14
2018-10-12T13:34:37.281Z,37.01
2018-10-12T13:37:10.836Z,36.96
2018-10-12T13:39:46.167Z,37.46
2018-10-12T13:42:19.453Z,38.01
2018-10-12T13:44:53.699Z,37.74
2018-10-12T13:47:28.452Z,37.02
2018-10-12T13:50:01.534Z,37.89
2018-10-12T13:52:37.855Z,37.67
2018-10-12T13:55:18.137Z,37.44
2018-10-12T13:57:50.878Z,37.90
2018-10-12T14:00:24.433Z,37.61
2018-10-12T14:02:57.608Z,37.55
2018-10-12T14:05:34.397Z,37.62
2018-10-12T14:08:07.376Z,37.78
2018-10-12T14:10:40.291Z,37.64
2018-10-12T14:13:12.898Z,37.36
2018-10-12T14:15:47.150Z,37.48
2018-10-12T14:18:23.926Z,37.32
2018-10-12T14:21:04.766Z,37.20
2018-10-12T14:23:38.582Z,36.69
2018-10-12T14:26:14.095Z,36.44
2018-10-12T14:28:47.665Z,36.79
2018-10-12T14:31:24.431Z,36.62
2018-10-12T14:33:56.911Z,36.66
2018-10-12T14:36:31.141Z,37.08
2018-10-12T14:39:07.228Z,37.42
2018-10-12T14:41:45.111Z,37.23
2018-10-12T14:44:20.041Z,37.39
2018-10-12T14:46:53.409Z,37.38
2018-10-12T14:49:30.579Z,37.29
2018-10-12T14:52:05.939Z,36.78
2018-10-12T14:54:40.455Z,36.92
2018-10-12T14:57:19.820Z,36.87
2018-10-12T14:59:54.200Z,37.00
2018-10-12T15:02:27.485Z,37.08
2018-10-12T15:05:02.358Z,37.20
2018-10-12T15:07:36.141Z,37.03
2018-10-12T15:10:10.848Z,36.77
2018-10-12T15:12:45.736Z,36.90
2018-10-12T15:15:27.349Z,36.88
2018-10-12T15:18:03.098Z,36.79
2018-10-12T15:20:36.893Z,36.66
2018-10-12T15:23:11.912Z,36.68
2018-10-12T15:25:46.899Z,36.68
2018-10-12T15:28:20.465Z,36.74
2018-10-12T15:30:55.892Z,36.88
2018-10-12T15:33:32.078Z,37.11
2018-10-12T15:36:05.565Z,37.35
2018-10-12T15:38:41.394Z,37.55
2018-10-12T15:41:16.475Z,37.47
2018-10-12T15:43:52.190Z,37.55
2018-10-12T15:46:25.499Z,38.01
2018-10-12T15:48:59.708Z,38.23
2018-10-12T15:51:32.421Z,38.41
2018-10-12T15:54:11.334Z,39.00
2018-10-12T15:56:45.860Z,39.68
2018-10-12T15:59:20.757Z,40.13
2018-10-12T16:01:55.987Z,40.80
2018-10-12T16:04:28.854Z,41.30
2018-10-12T16:07:05.661Z,41.85
2018-10-12T16:09:39.344Z,42.21
2018-10-12T16:12:12.510Z,42.65
2018-10-12T16:14:46.868Z,43.02
2018-10-12T16:17:20.895Z,43.44
2018-10-12T16:19:55.016Z,43.76
2018-10-12T16:22:27.700Z,44.08
2018-10-12T16:25:22.385Z,44.39
2018-10-12T16:27:56.776Z,45.02
2018-10-12T16:30:29.520Z,45.29
2018-10-12T16:33:04.356Z,45.61
2018-10-12T16:35:39.905Z,45.86
2018-10-12T16:38:14.460Z,46.31
2018-10-12T16:40:47.455Z,46.42
2018-10-12T16:43:21.078Z,46.78
2018-10-12T16:45:54.700Z,47.12
2018-10-12T16:48:30.611Z,47.41
2018-10-12T16:51:06.429Z,47.87
2018-10-12T16:53:42.349Z,48.05
2018-10-12T16:56:15.779Z,48.26
2018-10-12T16:58:50.710Z,48.56
2018-10-12T17:01:28.120Z,48.82
2018-10-12T17:04:00.970Z,49.10
2018-10-12T17:06:34.101Z,49.41
2018-10-12T17:09:10.566Z,49.58
2018-10-12T17:11:46.470Z,49.92
2018-10-12T17:14:21.778Z,50.19
2018-10-12T17:16:58.495Z,50.32
2018-10-12T17:19:32.156Z,50.66
2018-10-12T17:22:05.358Z,50.89
2018-10-12T17:24:40.577Z,51.20
2018-10-12T17:27:19.179Z,51.29
2018-10-12T17:29:54.598Z,51.42
2018-10-12T17:32:31.580Z,51.58
2018-10-12T17:35:04.554Z,51.83
2018-10-12T17:37:37.305Z,52.08
2018-10-12T17:40:10.439Z,52.46
2018-10-12T17:42:44.134Z,52.83
2018-10-12T17:45:21.796Z,53.13
2018-10-12T17:47:59.007Z,53.34
2018-10-12T17:50:33.922Z,53.70
2018-10-12T17:53:07.900Z,53.92
2018-10-12T17:55:41.421Z,54.12
2018-10-12T17:58:15.166Z,54.48
2018-10-12T18:00:58.518Z,54.70
2018-10-12T18:03:31.060Z,55.05
2018-10-12T18:16:18.368Z,56.11
2018-10-12T18:18:52.584Z,56.36
2018-10-12T18:21:27.169Z,56.49
2018-10-12T18:24:00.452Z,56.89
2018-10-12T18:26:35.658Z,57.14
2018-10-12T18:29:12.057Z,57.34
2018-10-12T18:31:47.648Z,57.74
2018-10-12T18:34:23.532Z,57.88
2018-10-12T18:37:02.509Z,58.09
2018-10-12T18:39:41.470Z,58.35
2018-10-12T18:42:14.195Z,58.61
2018-10-12T18:44:47.623Z,58.96
2018-10-12T18:47:24.381Z,59.18
2018-10-12T18:50:00.633Z,59.46
2018-10-12T18:52:34.379Z,59.80
2018-10-12T18:55:18.762Z,60.16
2018-10-12T18:57:52.830Z,60.30
2018-10-12T19:00:29.707Z,60.83
2018-10-12T19:03:03.076Z,60.84
2018-10-12T19:05:37.697Z,61.12
2018-10-12T19:08:12.748Z,61.32
2018-10-12T19:10:47.757Z,61.31
2018-10-12T19:13:22.233Z,61.58
2018-10-12T19:15:57.042Z,61.65
2018-10-12T19:18:30.572Z,61.81
2018-10-12T19:21:15.297Z,61.98
2018-10-12T19:23:52.703Z,62.09
2018-10-12T19:26:35.283Z,62.10
2018-10-12T19:29:11.384Z,61.77
2018-10-12T19:31:52.596Z,61.72
2018-10-12T19:34:37.733Z,61.77
2018-10-12T19:37:19.893Z,61.74
2018-10-12T19:39:57.371Z,61.72
2018-10-12T19:42:33.229Z,61.78
2018-10-12T19:45:16.553Z,61.92
2018-10-12T19:47:53.743Z,62.05
2018-10-12T19:50:31.268Z,62.03
2018-10-12T19:53:05.898Z,62.16
2018-10-12T19:55:40.568Z,62.20
2018-10-12T19:58:16.022Z,62.26
2018-10-12T20:00:52.408Z,62.42
2018-10-12T20:03:25.830Z,62.59
2018-10-12T20:06:01.837Z,62.90
2018-10-12T20:08:54.696Z,63.00
2018-10-12T20:11:28.586Z,63.27
2018-10-12T20:14:08.191Z,63.33
2018-10-12T20:16:42.062Z,63.34
2018-10-12T20:19:15.875Z,63.51
2018-10-12T20:21:55.533Z,63.63
2018-10-12T20:24:29.039Z,63.53
2018-10-12T20:27:01.825Z,63.77
2018-10-12T20:29:38.055Z,63.79
2018-10-12T20:32:13.326Z,63.95
2018-10-12T20:34:50.903Z,63.95
2018-10-12T20:37:28.297Z,63.78
2018-10-12T20:40:13.863Z,63.81
2018-10-12T20:42:49.956Z,64.05
2018-10-12T20:45:24.682Z,64.03
2018-10-12T20:48:02.578Z,64.01
2018-10-12T20:50:37.380Z,64.16
2018-10-12T20:53:11.022Z,64.21
2018-10-12T20:55:46.633Z,64.11
2018-10-12T20:58:23.298Z,64.06
2018-10-12T21:00:57.261Z,64.13
2018-10-12T21:03:30.118Z,64.21
2018-10-12T21:06:03.625Z,64.33
2018-10-12T21:08:38.561Z,64.35
2018-10-12T21:11:12.017Z,64.26
2018-10-12T21:13:46.592Z,64.27
2018-10-12T21:16:21.646Z,64.36
2018-10-12T21:18:55.376Z,64.45
2018-10-12T21:21:28.718Z,64.24
2018-10-12T21:24:10.380Z,64.03
2018-10-12T21:26:44.030Z,63.77
2018-10-12T21:29:18.871Z,63.43
2018-10-12T21:31:52.728Z,63.14
2018-10-12T21:34:26.686Z,62.89
2018-10-12T21:37:01.041Z,62.80
2018-10-12T21:39:34.609Z,62.66
2018-10-12T21:42:10.043Z,62.48
2018-10-12T21:44:45.301Z,62.32
2018-10-12T21:47:19.669Z,62.18
2018-10-12T21:49:55.607Z,62.00
2018-10-12T21:52:31.104Z,61.85
2018-10-12T21:55:06.694Z,61.54
2018-10-12T21:57:39.650Z,61.46
2018-10-12T22:00:15.969Z,61.29
2018-10-12T22:02:52.201Z,61.08
2018-10-12T22:05:25.260Z,60.83
2018-10-12T22:07:59.119Z,60.60
2018-10-12T22:10:32.573Z,60.26
2018-10-12T22:13:05.714Z,59.91
2018-10-12T22:15:38.409Z,59.51
2018-10-12T22:18:11.478Z,59.37
2018-10-12T22:20:44.560Z,59.14
2018-10-12T22:23:17.890Z,59.07
2018-10-12T22:25:50.544Z,59.13
2018-10-12T22:28:24.523Z,59.21
2018-10-12T22:30:59.640Z,59.28
2018-10-12T22:33:33.774Z,59.38
2018-10-12T22:36:06.735Z,59.41
2018-10-12T22:38:42.668Z,59.43
2018-10-12T22:41:15.383Z,59.35
2018-10-12T22:43:49.219Z,59.40
2018-10-12T22:46:25.958Z,59.56
2018-10-12T22:48:59.507Z,59.71
2018-10-12T22:51:33.585Z,59.81
2018-10-12T22:54:06.452Z,59.77
2018-10-12T22:56:39.212Z,59.71
2018-10-12T22:59:12.972Z,59.51
2018-10-12T23:01:49.305Z,59.54
2018-10-12T23:04:22.452Z,59.53
2018-10-12T23:06:57.600Z,59.55
2018-10-12T23:09:30.337Z,59.59
2018-10-12T23:12:03.029Z,59.50
2018-10-12T23:14:38.006Z,59.46
2018-10-12T23:17:10.904Z,59.71
2018-10-12T23:19:43.542Z,60.02
2018-10-12T23:22:18.526Z,60.12
2018-10-12T23:24:50.343Z,60.13
2018-10-12T23:27:24.883Z,60.19
2018-10-12T23:30:03.032Z,60.18
2018-10-12T23:32:36.877Z,60.18
2018-10-12T23:35:11.114Z,60.22
2018-10-12T23:37:47.162Z,60.32
2018-10-12T23:40:19.964Z,60.54
2018-10-12T23:42:54.921Z,60.68
2018-10-12T23:45:29.802Z,60.83
2018-10-12T23:48:02.772Z,60.93
2018-10-12T23:50:36.075Z,61.11
2018-10-12T23:53:09.163Z,61.28
2018-10-12T23:55:42.300Z,61.52
2018-10-12T23:58:16.729Z,61.74
